createdAt,value
2023-04-08T00:05:24.451Z,21.50
2023-04-08T00:17:24.925Z,20.30
2023-04-08T00:29:25.396Z,24.40
2023-04-08T00:41:28.538Z,21.30
2023-04-08T00:53:26.277Z,24.80
2023-04-08T01:05:26.723Z,22.50
2023-04-08T01:17:29.468Z,22.00
2023-04-08T01:29:29.879Z,24.00
2023-04-08T01:41:28.039Z,22.50
2023-04-08T01:53:28.529Z,23.30
2023-04-08T02:05:29.017Z,21.80
2023-04-08T02:17:29.486Z,21.50
2023-04-08T02:29:29.890Z,21.40
2023-04-08T02:41:30.304Z,23.60
2023-04-08T02:53:30.822Z,22.00
2023-04-08T03:05:31.232Z,22.40
2023-04-08T03:17:31.735Z,24.20
2023-04-08T03:29:32.143Z,24.10
2023-04-08T03:41:32.606Z,22.20
2023-04-08T03:53:35.866Z,24.10
2023-04-08T04:05:33.476Z,25.60
2023-04-08T04:17:33.993Z,25.40
2023-04-08T04:29:34.425Z,26.90
2023-04-08T04:41:34.814Z,28.40
2023-04-08T04:53:35.298Z,29.70
2023-04-08T05:05:35.772Z,30.80
2023-04-08T05:17:36.278Z,32.00
2023-04-08T05:29:36.685Z,32.60
2023-04-08T05:41:37.171Z,33.00
2023-04-08T05:53:37.572Z,35.50
2023-04-08T06:05:38.015Z,36.40
2023-04-08T06:17:38.506Z,33.70
2023-04-08T06:29:44.636Z,32.40
2023-04-08T06:41:39.357Z,26.30
2023-04-08T06:53:39.845Z,25.50
2023-04-08T07:05:40.273Z,25.70
2023-04-08T07:17:40.807Z,17.20
2023-04-08T07:29:41.175Z,10.90
2023-04-08T07:41:41.840Z,10.30
2023-04-08T07:53:42.170Z,9.10
2023-04-08T08:05:44.792Z,7.80
2023-04-08T08:17:43.028Z,6.90
2023-04-08T08:29:43.477Z,6.20
2023-04-08T08:41:43.915Z,5.70
2023-04-08T08:53:44.342Z,5.40
2023-04-08T09:05:47.678Z,4.70
2023-04-08T09:17:48.354Z,6.00
2023-04-08T09:29:45.716Z,6.60
2023-04-08T09:41:46.154Z,7.30
2023-04-08T09:53:46.627Z,4.50
2023-04-08T10:05:47.081Z,3.90
2023-04-08T10:17:47.561Z,3.60
2023-04-08T10:29:47.974Z,3.90
2023-04-08T10:41:48.414Z,4.10
2023-04-08T10:53:48.977Z,4.00
2023-04-08T11:05:49.297Z,4.90
2023-04-08T11:17:49.792Z,4.80
2023-04-08T11:29:50.228Z,3.80
2023-04-08T11:41:50.698Z,3.70
2023-04-08T11:53:52.202Z,3.90
2023-04-08T12:05:51.565Z,4.00
2023-04-08T12:17:52.095Z,5.00
2023-04-08T12:29:52.483Z,4.20
2023-04-08T12:41:52.926Z,4.70
2023-04-08T12:53:53.403Z,4.80
2023-04-08T13:05:53.853Z,6.00
2023-04-08T13:17:54.330Z,7.30
2023-04-08T13:29:54.773Z,12.40
2023-04-08T13:41:55.220Z,8.10
2023-04-08T13:53:55.666Z,10.50
2023-04-08T14:05:56.145Z,11.10
2023-04-08T14:17:56.628Z,12.40
2023-04-08T14:29:57.026Z,12.80
2023-04-08T14:41:57.479Z,13.90
2023-04-08T14:53:57.956Z,12.20
2023-04-08T15:05:58.402Z,12.20
2023-04-08T15:17:58.817Z,13.90
2023-04-08T15:29:59.251Z,14.70
2023-04-08T15:41:59.760Z,13.50
2023-04-08T15:54:00.145Z,14.90
2023-04-08T16:06:00.626Z,16.00
2023-04-08T16:18:02.846Z,18.10
2023-04-08T16:30:01.548Z,18.20
2023-04-08T16:42:01.974Z,21.50
2023-04-08T16:54:02.456Z,17.80
2023-04-08T17:06:02.883Z,17.40
2023-04-08T17:18:03.398Z,19.60
2023-04-08T17:30:03.797Z,23.60
2023-04-08T17:42:04.239Z,16.10
2023-04-08T17:54:04.706Z,16.80
2023-04-08T18:06:05.175Z,18.10
2023-04-08T18:18:05.607Z,19.10
2023-04-08T18:30:06.050Z,20.30
2023-04-08T18:42:06.505Z,20.40
2023-04-08T18:54:06.992Z,21.20
2023-04-08T19:06:07.410Z,23.30
2023-04-08T19:18:07.843Z,22.90
2023-04-08T19:30:08.318Z,22.00
2023-04-08T19:42:08.775Z,22.20
2023-04-08T19:54:10.967Z,23.20
2023-04-08T20:06:09.687Z,25.70
2023-04-08T20:18:10.121Z,26.60
2023-04-08T20:30:13.391Z,24.10
2023-04-08T20:42:11.034Z,24.60
2023-04-08T20:54:11.527Z,26.30
2023-04-08T21:06:11.972Z,26.20
2023-04-08T21:18:12.412Z,27.80
2023-04-08T21:30:14.586Z,30.40
2023-04-08T21:42:13.321Z,28.60
2023-04-08T21:54:20.994Z,30.10
2023-04-08T22:06:25.583Z,32.80
2023-04-08T22:18:14.688Z,34.20
2023-04-08T22:30:15.097Z,34.40
2023-04-08T22:42:15.565Z,35.10
2023-04-08T22:54:16.020Z,33.50
2023-04-08T23:06:16.439Z,32.30
2023-04-08T23:18:19.645Z,32.50
2023-04-08T23:30:17.378Z,30.90
2023-04-08T23:42:17.835Z,29.40
2023-04-08T23:54:18.267Z,26.50
